sensor_id;sensor_type;location;lat;lon;timestamp;temperature;humidity
59307;DHT22;47983;53.016;-2.260;2022-12-07T00:01:42;0.10;99.90
59307;DHT22;47983;53.016;-2.260;2022-12-07T00:04:11;0.10;99.90
59307;DHT22;47983;53.016;-2.260;2022-12-07T00:06:44;0.10;99.90
59307;DHT22;47983;53.016;-2.260;2022-12-07T00:09:15;0.10;99.90
59307;DHT22;47983;53.016;-2.260;2022-12-07T00:11:43;0.10;99.90
59307;DHT22;47983;53.016;-2.260;2022-12-07T00:14:13;0.00;99.90
59307;DHT22;47983;53.016;-2.260;2022-12-07T00:16:42;0.00;99.90
59307;DHT22;47983;53.016;-2.260;2022-12-07T00:19:11;0.00;99.90
59307;DHT22;47983;53.016;-2.260;2022-12-07T00:21:39;0.00;99.90
59307;DHT22;47983;53.016;-2.260;2022-12-07T00:24:07;0.00;99.90
59307;DHT22;47983;53.016;-2.260;2022-12-07T00:26:38;0.00;99.90
59307;DHT22;47983;53.016;-2.260;2022-12-07T00:29:12;0.00;99.90
59307;DHT22;47983;53.016;-2.260;2022-12-07T00:31:43;0.00;99.90
59307;DHT22;47983;53.016;-2.260;2022-12-07T00:34:16;0.00;99.90
59307;DHT22;47983;53.016;-2.260;2022-12-07T00:36:44;0.10;99.90
59307;DHT22;47983;53.016;-2.260;2022-12-07T00:39:12;0.10;99.90
59307;DHT22;47983;53.016;-2.260;2022-12-07T00:41:40;0.00;99.90
59307;DHT22;47983;53.016;-2.260;2022-12-07T00:44:08;0.00;99.90
59307;DHT22;47983;53.016;-2.260;2022-12-07T00:46:36;0.00;99.90
59307;DHT22;47983;53.016;-2.260;2022-12-07T00:49:04;0.00;99.90
59307;DHT22;47983;53.016;-2.260;2022-12-07T00:51:31;0.00;99.90
59307;DHT22;47983;53.016;-2.260;2022-12-07T00:53:59;0.00;99.90
59307;DHT22;47983;53.016;-2.260;2022-12-07T00:56:29;-0.10;99.90
59307;DHT22;47983;53.016;-2.260;2022-12-07T00:59:00;0.00;99.90
59307;DHT22;47983;53.016;-2.260;2022-12-07T01:01:31;0.00;99.90
59307;DHT22;47983;53.016;-2.260;2022-12-07T01:04:00;0.00;99.90
59307;DHT22;47983;53.016;-2.260;2022-12-07T01:06:31;-0.10;99.90
59307;DHT22;47983;53.016;-2.260;2022-12-07T01:08:59;0.00;99.90
59307;DHT22;47983;53.016;-2.260;2022-12-07T01:11:29;-0.20;99.90
59307;DHT22;47983;53.016;-2.260;2022-12-07T01:13:57;-0.10;99.90
59307;DHT22;47983;53.016;-2.260;2022-12-07T01:16:27;-0.10;99.90
59307;DHT22;47983;53.016;-2.260;2022-12-07T01:18:56;-0.20;99.90
59307;DHT22;47983;53.016;-2.260;2022-12-07T01:21:26;-0.20;99.90
59307;DHT22;47983;53.016;-2.260;2022-12-07T01:23:57;-0.20;99.90
59307;DHT22;47983;53.016;-2.260;2022-12-07T01:26:25;-0.20;99.90
59307;DHT22;47983;53.016;-2.260;2022-12-07T01:28:56;-0.20;99.90
59307;DHT22;47983;53.016;-2.260;2022-12-07T01:31:27;-0.30;99.90
59307;DHT22;47983;53.016;-2.260;2022-12-07T01:33:57;-0.30;99.90
59307;DHT22;47983;53.016;-2.260;2022-12-07T01:36:35;-0.30;99.90
59307;DHT22;47983;53.016;-2.260;2022-12-07T01:39:06;-0.30;99.90
59307;DHT22;47983;53.016;-2.260;2022-12-07T01:41:36;-0.40;99.90
59307;DHT22;47983;53.016;-2.260;2022-12-07T01:44:20;-0.40;99.90
59307;DHT22;47983;53.016;-2.260;2022-12-07T01:54:38;-0.50;99.90
59307;DHT22;47983;53.016;-2.260;2022-12-07T01:57:07;-0.50;99.90
59307;DHT22;47983;53.016;-2.260;2022-12-07T01:59:36;-0.50;99.90
59307;DHT22;47983;53.016;-2.260;2022-12-07T02:02:07;-0.50;99.90
59307;DHT22;47983;53.016;-2.260;2022-12-07T02:04:37;0.00;99.90
59307;DHT22;47983;53.016;-2.260;2022-12-07T02:07:08;-0.60;99.90
59307;DHT22;47983;53.016;-2.260;2022-12-07T02:09:39;-0.50;99.90
59307;DHT22;47983;53.016;-2.260;2022-12-07T02:12:10;-0.60;99.90
59307;DHT22;47983;53.016;-2.260;2022-12-07T02:14:42;-0.60;99.90
59307;DHT22;47983;53.016;-2.260;2022-12-07T02:17:28;-0.60;99.90
59307;DHT22;47983;53.016;-2.260;2022-12-07T02:26:23;-0.70;99.90
59307;DHT22;47983;53.016;-2.260;2022-12-07T02:29:16;-0.80;99.90
59307;DHT22;47983;53.016;-2.260;2022-12-07T02:32:16;-0.80;99.90
59307;DHT22;47983;53.016;-2.260;2022-12-07T02:40:57;-0.80;99.90
59307;DHT22;47983;53.016;-2.260;2022-12-07T02:43:35;-0.80;99.90
59307;DHT22;47983;53.016;-2.260;2022-12-07T02:46:12;-0.80;99.90
59307;DHT22;47983;53.016;-2.260;2022-12-07T02:48:43;-0.80;99.90
59307;DHT22;47983;53.016;-2.260;2022-12-07T02:51:13;-0.80;99.90
59307;DHT22;47983;53.016;-2.260;2022-12-07T02:53:43;-0.80;99.90
59307;DHT22;47983;53.016;-2.260;2022-12-07T03:07:06;-0.70;99.90
59307;DHT22;47983;53.016;-2.260;2022-12-07T03:09:43;-0.70;99.90
59307;DHT22;47983;53.016;-2.260;2022-12-07T03:12:18;-0.70;99.90
59307;DHT22;47983;53.016;-2.260;2022-12-07T03:14:52;-0.80;99.90
59307;DHT22;47983;53.016;-2.260;2022-12-07T03:17:29;-0.80;99.90
59307;DHT22;47983;53.016;-2.260;2022-12-07T03:20:02;-0.80;99.90
59307;DHT22;47983;53.016;-2.260;2022-12-07T03:22:34;-0.80;99.90
59307;DHT22;47983;53.016;-2.260;2022-12-07T03:25:11;-0.80;99.90
59307;DHT22;47983;53.016;-2.260;2022-12-07T03:27:52;-0.90;99.90
59307;DHT22;47983;53.016;-2.260;2022-12-07T03:30:30;-0.90;99.90
59307;DHT22;47983;53.016;-2.260;2022-12-07T03:33:17;-0.90;99.90
59307;DHT22;47983;53.016;-2.260;2022-12-07T03:39:03;-0.90;99.90
59307;DHT22;47983;53.016;-2.260;2022-12-07T03:41:35;-1.00;99.90
59307;DHT22;47983;53.016;-2.260;2022-12-07T03:44:12;-1.00;99.90
59307;DHT22;47983;53.016;-2.260;2022-12-07T03:47:10;-1.00;99.90
59307;DHT22;47983;53.016;-2.260;2022-12-07T03:49:44;-1.00;99.90
59307;DHT22;47983;53.016;-2.260;2022-12-07T03:52:24;-1.00;99.90
59307;DHT22;47983;53.016;-2.260;2022-12-07T03:55:15;-1.00;99.90
59307;DHT22;47983;53.016;-2.260;2022-12-07T03:57:47;-1.00;99.90
59307;DHT22;47983;53.016;-2.260;2022-12-07T04:00:17;-1.00;99.90
59307;DHT22;47983;53.016;-2.260;2022-12-07T04:02:55;-1.00;99.90
59307;DHT22;47983;53.016;-2.260;2022-12-07T04:05:24;-1.00;99.90
59307;DHT22;47983;53.016;-2.260;2022-12-07T04:07:52;-1.00;99.90
59307;DHT22;47983;53.016;-2.260;2022-12-07T04:10:19;-1.00;99.90
59307;DHT22;47983;53.016;-2.260;2022-12-07T04:12:47;-1.00;99.90
59307;DHT22;47983;53.016;-2.260;2022-12-07T04:15:17;-1.00;99.90
59307;DHT22;47983;53.016;-2.260;2022-12-07T04:17:45;-1.10;99.90
59307;DHT22;47983;53.016;-2.260;2022-12-07T04:20:13;-1.10;99.90
59307;DHT22;47983;53.016;-2.260;2022-12-07T04:22:41;-1.10;99.90
59307;DHT22;47983;53.016;-2.260;2022-12-07T04:25:08;-1.10;99.90
59307;DHT22;47983;53.016;-2.260;2022-12-07T04:27:39;-1.10;99.90
59307;DHT22;47983;53.016;-2.260;2022-12-07T04:30:07;-1.10;99.90
59307;DHT22;47983;53.016;-2.260;2022-12-07T04:32:38;-1.10;99.90
59307;DHT22;47983;53.016;-2.260;2022-12-07T04:35:06;-0.20;99.90
59307;DHT22;47983;53.016;-2.260;2022-12-07T04:37:34;-1.10;99.90
59307;DHT22;47983;53.016;-2.260;2022-12-07T04:40:02;-1.20;99.90
59307;DHT22;47983;53.016;-2.260;2022-12-07T04:42:30;-1.10;99.90
59307;DHT22;47983;53.016;-2.260;2022-12-07T04:44:58;-1.10;99.90
59307;DHT22;47983;53.016;-2.260;2022-12-07T04:47:25;-1.20;99.90
59307;DHT22;47983;53.016;-2.260;2022-12-07T04:49:53;-1.20;99.90
59307;DHT22;47983;53.016;-2.260;2022-12-07T04:52:21;-1.20;99.90
59307;DHT22;47983;53.016;-2.260;2022-12-07T04:54:49;-1.20;99.90
59307;DHT22;47983;53.016;-2.260;2022-12-07T04:57:17;-1.20;99.90
59307;DHT22;47983;53.016;-2.260;2022-12-07T04:59:44;-1.20;99.90
59307;DHT22;47983;53.016;-2.260;2022-12-07T05:02:12;-1.20;99.90
59307;DHT22;47983;53.016;-2.260;2022-12-07T05:05:00;-1.30;99.90
59307;DHT22;47983;53.016;-2.260;2022-12-07T05:07:28;-1.30;99.90
59307;DHT22;47983;53.016;-2.260;2022-12-07T05:09:56;-1.30;99.90
59307;DHT22;47983;53.016;-2.260;2022-12-07T05:12:23;-1.30;99.90
59307;DHT22;47983;53.016;-2.260;2022-12-07T05:14:51;-1.30;99.90
59307;DHT22;47983;53.016;-2.260;2022-12-07T05:17:19;-1.30;99.90
59307;DHT22;47983;53.016;-2.260;2022-12-07T05:19:46;-1.30;99.90
59307;DHT22;47983;53.016;-2.260;2022-12-07T05:22:14;-1.40;99.90
59307;DHT22;47983;53.016;-2.260;2022-12-07T05:24:42;-1.30;99.90
59307;DHT22;47983;53.016;-2.260;2022-12-07T05:27:12;-1.40;99.90
59307;DHT22;47983;53.016;-2.260;2022-12-07T05:29:40;-1.30;99.90
59307;DHT22;47983;53.016;-2.260;2022-12-07T05:32:17;-1.30;99.90
59307;DHT22;47983;53.016;-2.260;2022-12-07T05:34:45;-1.40;99.90
59307;DHT22;47983;53.016;-2.260;2022-12-07T05:37:12;-1.30;99.90
59307;DHT22;47983;53.016;-2.260;2022-12-07T05:39:40;-1.30;99.90
59307;DHT22;47983;53.016;-2.260;2022-12-07T05:42:10;-1.40;99.90
59307;DHT22;47983;53.016;-2.260;2022-12-07T05:44:41;-1.40;99.90
59307;DHT22;47983;53.016;-2.260;2022-12-07T05:47:14;-1.40;99.90
59307;DHT22;47983;53.016;-2.260;2022-12-07T05:49:45;-1.40;99.90
59307;DHT22;47983;53.016;-2.260;2022-12-07T05:52:13;-1.30;99.90
59307;DHT22;47983;53.016;-2.260;2022-12-07T05:54:41;-1.30;99.90
59307;DHT22;47983;53.016;-2.260;2022-12-07T05:57:13;-1.40;99.90
59307;DHT22;47983;53.016;-2.260;2022-12-07T05:59:41;-1.40;99.90
59307;DHT22;47983;53.016;-2.260;2022-12-07T06:02:13;-1.30;99.90
59307;DHT22;47983;53.016;-2.260;2022-12-07T06:04:53;-1.40;99.90
59307;DHT22;47983;53.016;-2.260;2022-12-07T06:07:22;-1.40;99.90
59307;DHT22;47983;53.016;-2.260;2022-12-07T06:09:51;-1.40;99.90
59307;DHT22;47983;53.016;-2.260;2022-12-07T06:12:19;-1.40;99.90
59307;DHT22;47983;53.016;-2.260;2022-12-07T06:15:06;-1.40;99.90
59307;DHT22;47983;53.016;-2.260;2022-12-07T06:17:34;-1.40;99.90
59307;DHT22;47983;53.016;-2.260;2022-12-07T06:20:03;-1.40;99.90
59307;DHT22;47983;53.016;-2.260;2022-12-07T06:22:37;-1.40;99.90
59307;DHT22;47983;53.016;-2.260;2022-12-07T06:25:05;-1.40;99.90
59307;DHT22;47983;53.016;-2.260;2022-12-07T06:27:35;-1.40;99.90
59307;DHT22;47983;53.016;-2.260;2022-12-07T06:30:06;-1.40;99.90
59307;DHT22;47983;53.016;-2.260;2022-12-07T06:32:35;-1.40;99.90
59307;DHT22;47983;53.016;-2.260;2022-12-07T06:35:04;-1.40;99.90
59307;DHT22;47983;53.016;-2.260;2022-12-07T06:37:31;-1.40;99.90
59307;DHT22;47983;53.016;-2.260;2022-12-07T06:40:09;-1.40;99.90
59307;DHT22;47983;53.016;-2.260;2022-12-07T06:42:36;-1.40;99.90
59307;DHT22;47983;53.016;-2.260;2022-12-07T06:45:04;-1.40;99.90
59307;DHT22;47983;53.016;-2.260;2022-12-07T06:47:34;-1.50;99.90
59307;DHT22;47983;53.016;-2.260;2022-12-07T06:50:16;-1.50;99.90
59307;DHT22;47983;53.016;-2.260;2022-12-07T06:52:44;-1.50;99.90
59307;DHT22;47983;53.016;-2.260;2022-12-07T06:55:12;-1.60;99.90
59307;DHT22;47983;53.016;-2.260;2022-12-07T06:57:40;-1.60;99.90
59307;DHT22;47983;53.016;-2.260;2022-12-07T07:00:08;-1.70;99.90
59307;DHT22;47983;53.016;-2.260;2022-12-07T07:02:36;-1.60;99.90
59307;DHT22;47983;53.016;-2.260;2022-12-07T07:05:04;-1.70;99.90
59307;DHT22;47983;53.016;-2.260;2022-12-07T07:07:32;-1.70;99.90
59307;DHT22;47983;53.016;-2.260;2022-12-07T07:10:18;-1.70;99.90
59307;DHT22;47983;53.016;-2.260;2022-12-07T07:12:46;-1.20;99.90
59307;DHT22;47983;53.016;-2.260;2022-12-07T07:15:14;-1.70;99.90
59307;DHT22;47983;53.016;-2.260;2022-12-07T07:17:41;-1.70;99.90
59307;DHT22;47983;53.016;-2.260;2022-12-07T07:20:10;-1.70;99.90
59307;DHT22;47983;53.016;-2.260;2022-12-07T07:22:37;-1.70;99.90
59307;DHT22;47983;53.016;-2.260;2022-12-07T07:25:05;-1.70;99.90
59307;DHT22;47983;53.016;-2.260;2022-12-07T07:27:33;-1.70;99.90
59307;DHT22;47983;53.016;-2.260;2022-12-07T07:30:01;-0.90;99.90
59307;DHT22;47983;53.016;-2.260;2022-12-07T07:32:29;-1.70;99.90
59307;DHT22;47983;53.016;-2.260;2022-12-07T07:34:57;-1.70;99.90
59307;DHT22;47983;53.016;-2.260;2022-12-07T07:37:25;-1.70;99.90
59307;DHT22;47983;53.016;-2.260;2022-12-07T07:39:53;-1.70;99.90
59307;DHT22;47983;53.016;-2.260;2022-12-07T07:42:21;-1.70;99.90
59307;DHT22;47983;53.016;-2.260;2022-12-07T07:44:49;-1.80;99.90
59307;DHT22;47983;53.016;-2.260;2022-12-07T07:47:16;-1.70;99.90
59307;DHT22;47983;53.016;-2.260;2022-12-07T07:49:44;-1.70;99.90
59307;DHT22;47983;53.016;-2.260;2022-12-07T07:52:14;-1.80;99.90
59307;DHT22;47983;53.016;-2.260;2022-12-07T07:54:44;-1.70;99.90
59307;DHT22;47983;53.016;-2.260;2022-12-07T07:57:15;-1.80;99.90
59307;DHT22;47983;53.016;-2.260;2022-12-07T07:59:44;-1.80;99.90
59307;DHT22;47983;53.016;-2.260;2022-12-07T08:02:16;-1.80;99.90
59307;DHT22;47983;53.016;-2.260;2022-12-07T08:04:45;-1.80;99.90
59307;DHT22;47983;53.016;-2.260;2022-12-07T08:07:15;-1.80;99.90
59307;DHT22;47983;53.016;-2.260;2022-12-07T08:09:43;-1.80;99.90
59307;DHT22;47983;53.016;-2.260;2022-12-07T08:12:14;-1.90;99.90
59307;DHT22;47983;53.016;-2.260;2022-12-07T08:14:42;-1.90;99.90
59307;DHT22;47983;53.016;-2.260;2022-12-07T08:17:09;-1.80;99.90
59307;DHT22;47983;53.016;-2.260;2022-12-07T08:19:37;-1.90;99.90
59307;DHT22;47983;53.016;-2.260;2022-12-07T08:22:05;-1.80;99.90
59307;DHT22;47983;53.016;-2.260;2022-12-07T08:24:34;-1.80;99.90
59307;DHT22;47983;53.016;-2.260;2022-12-07T08:27:02;-1.80;99.90
59307;DHT22;47983;53.016;-2.260;2022-12-07T08:29:30;-1.80;99.90
59307;DHT22;47983;53.016;-2.260;2022-12-07T08:31:58;-1.80;99.90
59307;DHT22;47983;53.016;-2.260;2022-12-07T08:34:38;-1.70;99.90
59307;DHT22;47983;53.016;-2.260;2022-12-07T08:37:09;-1.70;99.90
59307;DHT22;47983;53.016;-2.260;2022-12-07T08:39:36;-1.70;99.90
59307;DHT22;47983;53.016;-2.260;2022-12-07T08:42:04;-1.60;99.90
59307;DHT22;47983;53.016;-2.260;2022-12-07T08:44:32;-1.60;99.90
59307;DHT22;47983;53.016;-2.260;2022-12-07T08:47:04;-1.50;99.90
59307;DHT22;47983;53.016;-2.260;2022-12-07T08:49:41;-1.50;99.90
59307;DHT22;47983;53.016;-2.260;2022-12-07T08:52:09;-1.50;99.90
59307;DHT22;47983;53.016;-2.260;2022-12-07T08:54:38;-1.40;99.90
59307;DHT22;47983;53.016;-2.260;2022-12-07T08:57:08;-1.40;99.90
59307;DHT22;47983;53.016;-2.260;2022-12-07T08:59:37;-1.40;99.90
59307;DHT22;47983;53.016;-2.260;2022-12-07T09:02:05;-1.30;99.90
59307;DHT22;47983;53.016;-2.260;2022-12-07T09:04:34;-1.30;99.90
59307;DHT22;47983;53.016;-2.260;2022-12-07T09:07:04;-1.30;99.90
59307;DHT22;47983;53.016;-2.260;2022-12-07T09:09:33;-1.20;99.90
59307;DHT22;47983;53.016;-2.260;2022-12-07T09:12:01;-1.10;99.90
59307;DHT22;47983;53.016;-2.260;2022-12-07T09:14:29;-1.10;99.90
59307;DHT22;47983;53.016;-2.260;2022-12-07T09:17:11;-1.00;99.90
59307;DHT22;47983;53.016;-2.260;2022-12-07T09:19:51;-0.90;99.90
59307;DHT22;47983;53.016;-2.260;2022-12-07T09:22:19;-0.90;99.90
59307;DHT22;47983;53.016;-2.260;2022-12-07T09:24:49;-0.90;99.90
59307;DHT22;47983;53.016;-2.260;2022-12-07T09:27:17;-0.80;99.90
59307;DHT22;47983;53.016;-2.260;2022-12-07T09:29:45;-0.90;99.90
59307;DHT22;47983;53.016;-2.260;2022-12-07T09:32:13;-0.80;99.90
59307;DHT22;47983;53.016;-2.260;2022-12-07T09:34:41;-0.80;99.90
59307;DHT22;47983;53.016;-2.260;2022-12-07T09:37:09;-0.80;99.90
59307;DHT22;47983;53.016;-2.260;2022-12-07T09:39:41;-0.80;99.90
59307;DHT22;47983;53.016;-2.260;2022-12-07T09:42:34;-0.80;99.90
59307;DHT22;47983;53.016;-2.260;2022-12-07T09:45:07;-0.80;99.90
59307;DHT22;47983;53.016;-2.260;2022-12-07T09:47:39;-0.80;99.90
59307;DHT22;47983;53.016;-2.260;2022-12-07T09:50:20;-0.80;99.90
59307;DHT22;47983;53.016;-2.260;2022-12-07T09:52:49;-0.80;99.90
59307;DHT22;47983;53.016;-2.260;2022-12-07T09:55:27;-0.80;99.90
59307;DHT22;47983;53.016;-2.260;2022-12-07T09:57:58;-0.70;99.90
59307;DHT22;47983;53.016;-2.260;2022-12-07T10:00:26;-0.60;99.90
59307;DHT22;47983;53.016;-2.260;2022-12-07T10:03:00;-0.50;99.90
59307;DHT22;47983;53.016;-2.260;2022-12-07T10:05:46;-0.50;99.90
59307;DHT22;47983;53.016;-2.260;2022-12-07T10:08:18;-0.40;99.90
59307;DHT22;47983;53.016;-2.260;2022-12-07T10:10:51;-0.30;99.90
59307;DHT22;47983;53.016;-2.260;2022-12-07T10:13:22;-0.20;99.90
59307;DHT22;47983;53.016;-2.260;2022-12-07T10:15:53;0.00;99.90
59307;DHT22;47983;53.016;-2.260;2022-12-07T10:18:27;0.10;99.90
59307;DHT22;47983;53.016;-2.260;2022-12-07T10:23:30;0.20;99.90
59307;DHT22;47983;53.016;-2.260;2022-12-07T10:25:58;0.20;99.90
59307;DHT22;47983;53.016;-2.260;2022-12-07T10:28:35;0.30;99.90
59307;DHT22;47983;53.016;-2.260;2022-12-07T10:31:20;0.40;99.90
59307;DHT22;47983;53.016;-2.260;2022-12-07T10:33:51;0.40;99.90
59307;DHT22;47983;53.016;-2.260;2022-12-07T10:36:21;0.50;99.90
59307;DHT22;47983;53.016;-2.260;2022-12-07T10:39:17;0.60;99.90
59307;DHT22;47983;53.016;-2.260;2022-12-07T10:41:59;0.70;99.90
59307;DHT22;47983;53.016;-2.260;2022-12-07T10:44:29;0.70;99.90
59307;DHT22;47983;53.016;-2.260;2022-12-07T10:47:25;0.80;99.90
59307;DHT22;47983;53.016;-2.260;2022-12-07T11:12:41;1.90;99.90
59307;DHT22;47983;53.016;-2.260;2022-12-07T11:18:09;2.50;99.90
59307;DHT22;47983;53.016;-2.260;2022-12-07T11:20:51;2.50;99.90
59307;DHT22;47983;53.016;-2.260;2022-12-07T11:23:56;2.70;99.90
59307;DHT22;47983;53.016;-2.260;2022-12-07T11:26:39;3.00;99.90
59307;DHT22;47983;53.016;-2.260;2022-12-07T11:32:13;3.40;99.90
59307;DHT22;47983;53.016;-2.260;2022-12-07T11:34:57;3.50;99.90
59307;DHT22;47983;53.016;-2.260;2022-12-07T11:37:33;3.70;99.90
59307;DHT22;47983;53.016;-2.260;2022-12-07T11:43:04;3.60;99.90
59307;DHT22;47983;53.016;-2.260;2022-12-07T11:45:36;3.80;99.90
59307;DHT22;47983;53.016;-2.260;2022-12-07T11:50:57;4.50;99.90
59307;DHT22;47983;53.016;-2.260;2022-12-07T11:53:30;4.50;99.90
59307;DHT22;47983;53.016;-2.260;2022-12-07T12:06:40;5.90;99.90
59307;DHT22;47983;53.016;-2.260;2022-12-07T12:09:19;6.10;99.90
59307;DHT22;47983;53.016;-2.260;2022-12-07T12:15:18;6.50;99.90
59307;DHT22;47983;53.016;-2.260;2022-12-07T12:23:01;6.90;99.90
59307;DHT22;47983;53.016;-2.260;2022-12-07T12:25:55;7.00;99.90
59307;DHT22;47983;53.016;-2.260;2022-12-07T12:31:15;7.40;99.90
59307;DHT22;47983;53.016;-2.260;2022-12-07T12:33:49;7.60;99.90
59307;DHT22;47983;53.016;-2.260;2022-12-07T12:38:49;8.00;99.90
59307;DHT22;47983;53.016;-2.260;2022-12-07T12:51:50;8.80;99.90
59307;DHT22;47983;53.016;-2.260;2022-12-07T12:57:08;9.30;99.90
59307;DHT22;47983;53.016;-2.260;2022-12-07T12:59:35;9.40;99.90
59307;DHT22;47983;53.016;-2.260;2022-12-07T13:02:36;9.40;99.90
59307;DHT22;47983;53.016;-2.260;2022-12-07T13:16:35;9.50;99.90
59307;DHT22;47983;53.016;-2.260;2022-12-07T13:21:02;9.60;99.90
59307;DHT22;47983;53.016;-2.260;2022-12-07T13:26:18;9.80;99.90
59307;DHT22;47983;53.016;-2.260;2022-12-07T13:31:39;9.80;99.90
59307;DHT22;47983;53.016;-2.260;2022-12-07T13:34:42;10.00;99.90
59307;DHT22;47983;53.016;-2.260;2022-12-07T13:37:23;10.10;99.90
59307;DHT22;47983;53.016;-2.260;2022-12-07T13:39:59;10.20;99.90
59307;DHT22;47983;53.016;-2.260;2022-12-07T13:42:28;10.10;99.90
59307;DHT22;47983;53.016;-2.260;2022-12-07T13:44:57;10.00;99.90
59307;DHT22;47983;53.016;-2.260;2022-12-07T13:47:35;9.90;99.90
59307;DHT22;47983;53.016;-2.260;2022-12-07T13:50:30;9.80;99.90
59307;DHT22;47983;53.016;-2.260;2022-12-07T13:53:00;9.90;99.90
59307;DHT22;47983;53.016;-2.260;2022-12-07T13:55:29;9.70;99.90
59307;DHT22;47983;53.016;-2.260;2022-12-07T13:57:57;9.90;99.90
59307;DHT22;47983;53.016;-2.260;2022-12-07T14:00:27;9.80;99.90
59307;DHT22;47983;53.016;-2.260;2022-12-07T14:05:30;8.40;99.90
59307;DHT22;47983;53.016;-2.260;2022-12-07T14:10:31;6.90;99.90
59307;DHT22;47983;53.016;-2.260;2022-12-07T14:13:01;6.30;99.90
59307;DHT22;47983;53.016;-2.260;2022-12-07T14:15:33;5.80;99.90
59307;DHT22;47983;53.016;-2.260;2022-12-07T14:18:02;4.90;99.90
59307;DHT22;47983;53.016;-2.260;2022-12-07T14:20:39;4.90;99.90
59307;DHT22;47983;53.016;-2.260;2022-12-07T14:23:23;4.60;99.90
59307;DHT22;47983;53.016;-2.260;2022-12-07T14:25:53;4.30;99.90
59307;DHT22;47983;53.016;-2.260;2022-12-07T14:28:28;4.10;99.90
59307;DHT22;47983;53.016;-2.260;2022-12-07T14:30:56;4.00;99.90
59307;DHT22;47983;53.016;-2.260;2022-12-07T14:33:24;3.80;99.90
59307;DHT22;47983;53.016;-2.260;2022-12-07T14:35:52;3.70;99.90
59307;DHT22;47983;53.016;-2.260;2022-12-07T14:38:25;3.50;99.90
59307;DHT22;47983;53.016;-2.260;2022-12-07T14:40:53;3.40;99.90
59307;DHT22;47983;53.016;-2.260;2022-12-07T14:43:22;3.30;99.90
59307;DHT22;47983;53.016;-2.260;2022-12-07T14:45:49;3.20;99.90
59307;DHT22;47983;53.016;-2.260;2022-12-07T14:48:17;3.10;99.90
59307;DHT22;47983;53.016;-2.260;2022-12-07T14:51:05;3.10;99.90
59307;DHT22;47983;53.016;-2.260;2022-12-07T14:53:54;3.00;99.90
59307;DHT22;47983;53.016;-2.260;2022-12-07T14:56:24;2.90;99.90
59307;DHT22;47983;53.016;-2.260;2022-12-07T14:58:52;2.90;99.90
59307;DHT22;47983;53.016;-2.260;2022-12-07T15:01:20;2.80;99.90
59307;DHT22;47983;53.016;-2.260;2022-12-07T15:03:47;2.80;99.90
59307;DHT22;47983;53.016;-2.260;2022-12-07T15:06:17;2.70;99.90
59307;DHT22;47983;53.016;-2.260;2022-12-07T15:08:45;2.70;99.90
59307;DHT22;47983;53.016;-2.260;2022-12-07T15:11:14;2.60;99.90
59307;DHT22;47983;53.016;-2.260;2022-12-07T15:13:42;2.60;99.90
59307;DHT22;47983;53.016;-2.260;2022-12-07T15:16:28;2.50;99.90
59307;DHT22;47983;53.016;-2.260;2022-12-07T15:19:18;2.40;99.90
59307;DHT22;47983;53.016;-2.260;2022-12-07T15:21:56;2.40;99.90
59307;DHT22;47983;53.016;-2.260;2022-12-07T15:24:24;2.30;99.90
59307;DHT22;47983;53.016;-2.260;2022-12-07T15:26:52;2.20;99.90
59307;DHT22;47983;53.016;-2.260;2022-12-07T15:29:20;2.10;99.90
59307;DHT22;47983;53.016;-2.260;2022-12-07T15:31:51;2.00;99.90
59307;DHT22;47983;53.016;-2.260;2022-12-07T15:34:25;2.00;99.90
59307;DHT22;47983;53.016;-2.260;2022-12-07T15:36:53;1.90;99.90
59307;DHT22;47983;53.016;-2.260;2022-12-07T15:39:21;1.80;99.90
59307;DHT22;47983;53.016;-2.260;2022-12-07T15:41:49;1.70;99.90
59307;DHT22;47983;53.016;-2.260;2022-12-07T15:44:17;1.70;99.90
59307;DHT22;47983;53.016;-2.260;2022-12-07T15:47:04;1.60;99.90
59307;DHT22;47983;53.016;-2.260;2022-12-07T15:49:32;1.50;99.90
59307;DHT22;47983;53.016;-2.260;2022-12-07T15:52:00;1.40;99.90
59307;DHT22;47983;53.016;-2.260;2022-12-07T15:54:30;1.30;99.90
59307;DHT22;47983;53.016;-2.260;2022-12-07T15:57:00;1.30;99.90
59307;DHT22;47983;53.016;-2.260;2022-12-07T15:59:37;1.10;99.90
59307;DHT22;47983;53.016;-2.260;2022-12-07T16:02:05;1.00;99.90
59307;DHT22;47983;53.016;-2.260;2022-12-07T16:04:33;1.00;99.90
59307;DHT22;47983;53.016;-2.260;2022-12-07T16:07:01;0.90;99.90
59307;DHT22;47983;53.016;-2.260;2022-12-07T16:09:28;0.80;99.90
59307;DHT22;47983;53.016;-2.260;2022-12-07T16:11:56;0.80;99.90
59307;DHT22;47983;53.016;-2.260;2022-12-07T16:14:23;0.80;99.90
59307;DHT22;47983;53.016;-2.260;2022-12-07T16:16:51;0.70;99.90
59307;DHT22;47983;53.016;-2.260;2022-12-07T16:19:19;3.70;99.90
59307;DHT22;47983;53.016;-2.260;2022-12-07T16:21:47;0.50;99.90
59307;DHT22;47983;53.016;-2.260;2022-12-07T16:24:14;0.50;99.90
59307;DHT22;47983;53.016;-2.260;2022-12-07T16:26:44;0.50;99.90
59307;DHT22;47983;53.016;-2.260;2022-12-07T16:29:18;0.40;99.90
59307;DHT22;47983;53.016;-2.260;2022-12-07T16:31:47;0.40;99.90
59307;DHT22;47983;53.016;-2.260;2022-12-07T16:34:15;0.30;99.90
59307;DHT22;47983;53.016;-2.260;2022-12-07T16:36:43;0.20;99.90
59307;DHT22;47983;53.016;-2.260;2022-12-07T16:39:31;0.20;99.90
59307;DHT22;47983;53.016;-2.260;2022-12-07T16:41:59;0.20;99.90
59307;DHT22;47983;53.016;-2.260;2022-12-07T16:44:27;0.20;99.90
59307;DHT22;47983;53.016;-2.260;2022-12-07T16:46:54;0.20;99.90
59307;DHT22;47983;53.016;-2.260;2022-12-07T16:49:22;0.10;99.90
59307;DHT22;47983;53.016;-2.260;2022-12-07T16:51:51;0.00;99.90
59307;DHT22;47983;53.016;-2.260;2022-12-07T16:54:39;0.00;99.90
59307;DHT22;47983;53.016;-2.260;2022-12-07T16:57:07;0.00;99.90
59307;DHT22;47983;53.016;-2.260;2022-12-07T16:59:34;-0.10;99.90
59307;DHT22;47983;53.016;-2.260;2022-12-07T17:02:02;-0.10;99.90
59307;DHT22;47983;53.016;-2.260;2022-12-07T17:04:33;-0.20;99.90
59307;DHT22;47983;53.016;-2.260;2022-12-07T17:07:01;-0.20;99.90
59307;DHT22;47983;53.016;-2.260;2022-12-07T17:09:28;-0.30;99.90
59307;DHT22;47983;53.016;-2.260;2022-12-07T17:11:56;-0.30;99.90
59307;DHT22;47983;53.016;-2.260;2022-12-07T17:14:24;-0.30;99.90
59307;DHT22;47983;53.016;-2.260;2022-12-07T17:17:10;-0.30;99.90
59307;DHT22;47983;53.016;-2.260;2022-12-07T17:19:38;-0.40;99.90
59307;DHT22;47983;53.016;-2.260;2022-12-07T17:22:06;-0.40;99.90
59307;DHT22;47983;53.016;-2.260;2022-12-07T17:24:34;-0.40;99.90
59307;DHT22;47983;53.016;-2.260;2022-12-07T17:27:02;-0.40;99.90
59307;DHT22;47983;53.016;-2.260;2022-12-07T17:29:29;-0.40;99.90
59307;DHT22;47983;53.016;-2.260;2022-12-07T17:31:57;-0.40;99.90
59307;DHT22;47983;53.016;-2.260;2022-12-07T17:34:25;-0.40;99.90
59307;DHT22;47983;53.016;-2.260;2022-12-07T17:36:52;-0.40;99.90
59307;DHT22;47983;53.016;-2.260;2022-12-07T17:39:22;-0.50;99.90
59307;DHT22;47983;53.016;-2.260;2022-12-07T17:41:49;-0.50;99.90
59307;DHT22;47983;53.016;-2.260;2022-12-07T17:44:39;-0.50;99.90
59307;DHT22;47983;53.016;-2.260;2022-12-07T17:47:07;-0.60;99.90
59307;DHT22;47983;53.016;-2.260;2022-12-07T17:49:38;-0.70;99.90
59307;DHT22;47983;53.016;-2.260;2022-12-07T17:52:05;-0.60;99.90
59307;DHT22;47983;53.016;-2.260;2022-12-07T17:54:55;-0.60;99.90
59307;DHT22;47983;53.016;-2.260;2022-12-07T17:57:24;-0.70;99.90
59307;DHT22;47983;53.016;-2.260;2022-12-07T17:59:52;-0.70;99.90
59307;DHT22;47983;53.016;-2.260;2022-12-07T18:02:21;-0.70;99.90
59307;DHT22;47983;53.016;-2.260;2022-12-07T18:04:49;-0.70;99.90